Time;durP1;ratioP1;P1;durP2;ratioP2;P2;SDS_P1;SDS_P2;PMS_P1;PMS_P2;Temp;Humidity;BMP_temperature;BMP_pressure;BME280_temperature;BME280_humidity;BME280_pressure;Samples;Min_cycle;Max_cycle;Signal;HPM_P1;HPM_P2
2021/08/07 00:00:01;;;;;;;7.43;5.82;;;;;;;;;;5054094;28;20049;-66
2021/08/07 00:02:46;;;;;;;8.50;5.85;;;;;;;;;;5051391;28;20037;-66
2021/08/07 00:05:32;;;;;;;7.53;5.28;;;;;;;;;;5053623;28;20037;-67
2021/08/07 00:08:17;;;;;;;9.73;5.55;;;;;;;;;;5053701;28;20044;-66
2021/08/07 00:11:03;;;;;;;8.07;5.25;;;;;;;;;;5052899;28;20041;-66
2021/08/07 00:13:48;;;;;;;9.45;5.40;;;;;;;;;;5049776;28;20079;-66
2021/08/07 00:16:34;;;;;;;7.68;5.03;;;;;;;;;;5053798;28;20044;-66
2021/08/07 00:19:19;;;;;;;9.07;5.50;;;;;;;;;;5053646;28;20045;-66
2021/08/07 00:22:05;;;;;;;6.40;4.32;;;;;;;;;;5080867;28;20041;-66
2021/08/07 00:24:50;;;;;;;10.23;4.97;;;;;;;;;;5079390;28;20056;-66
2021/08/07 00:27:35;;;;;;;12.10;5.53;;;;;;;;;;5053509;28;20044;-66
2021/08/07 00:30:20;;;;;;;9.48;5.82;;;;;;;;;;5053451;28;20044;-66
2021/08/07 00:33:06;;;;;;;9.52;5.28;;;;;;;;;;5053486;28;20052;-65
2021/08/07 00:35:51;;;;;;;10.90;5.95;;;;;;;;;;5050830;28;20063;-66
2021/08/07 00:38:37;;;;;;;6.40;5.10;;;;;;;;;;5053072;28;20033;-66
2021/08/07 00:41:23;;;;;;;11.98;5.20;;;;;;;;;;5052250;28;20041;-66
2021/08/07 00:44:08;;;;;;;8.88;4.97;;;;;;;;;;5050539;28;20045;-66
2021/08/07 00:46:58;;;;;;;12.50;5.45;;;;;;;;;;5051295;28;20057;-66
2021/08/07 00:49:44;;;;;;;5.32;4.88;;;;;;;;;;5051967;28;20644;-66
2021/08/07 00:52:31;;;;;;;9.98;5.72;;;;;;;;;;5051024;28;20048;-66
2021/08/07 00:55:18;;;;;;;9.50;4.45;;;;;;;;;;5050792;28;20041;-66
2021/08/07 00:58:03;;;;;;;5.97;4.35;;;;;;;;;;5050917;28;20056;-66
2021/08/07 01:00:48;;;;;;;6.00;3.90;;;;;;;;;;5051566;28;20055;-66
2021/08/07 01:03:45;;;;;;;5.70;3.13;;;;;;;;;;5037587;28;20154;-66
2021/08/07 01:07:05;;;;;;;7.97;3.60;;;;;;;;;;5049635;28;20458;-66
2021/08/07 01:09:58;;;;;;;5.60;3.30;;;;;;;;;;5032300;28;20143;-66
2021/08/07 01:12:50;;;;;;;6.28;3.70;;;;;;;;;;5031909;28;20072;-66
2021/08/07 01:15:38;;;;;;;6.85;3.35;;;;;;;;;;5037361;28;20047;-66
2021/08/07 01:18:27;;;;;;;7.97;3.55;;;;;;;;;;5030219;28;20049;-66
2021/08/07 01:21:19;;;;;;;7.15;3.53;;;;;;;;;;5017420;28;20159;-66
2021/08/07 01:24:15;;;;;;;6.05;3.47;;;;;;;;;;5018753;28;20073;-66
2021/08/07 01:27:11;;;;;;;6.38;2.67;;;;;;;;;;5039756;28;20158;-66
2021/08/07 01:29:57;;;;;;;5.80;2.83;;;;;;;;;;5050245;28;20049;-66
2021/08/07 01:32:42;;;;;;;5.85;2.80;;;;;;;;;;5051249;28;20179;-66
2021/08/07 01:35:28;;;;;;;7.88;3.35;;;;;;;;;;5051051;28;20068;-66
2021/08/07 01:38:13;;;;;;;4.90;2.53;;;;;;;;;;5051029;28;20059;-66
2021/08/07 01:41:13;;;;;;;8.73;3.08;;;;;;;;;;5038163;28;20051;-66
2021/08/07 01:43:59;;;;;;;6.32;2.95;;;;;;;;;;5052026;28;20132;-66
2021/08/07 01:46:59;;;;;;;7.55;3.30;;;;;;;;;;5050921;28;20052;-66
2021/08/07 01:50:07;;;;;;;5.28;2.97;;;;;;;;;;5045557;28;20613;-66
2021/08/07 01:52:56;;;;;;;5.78;2.80;;;;;;;;;;5017649;28;20041;-66
2021/08/07 01:55:53;;;;;;;5.50;2.80;;;;;;;;;;5017141;28;20052;-65
2021/08/07 01:58:46;;;;;;;5.63;2.42;;;;;;;;;;5055313;28;20040;-66
2021/08/07 02:01:32;;;;;;;12.48;3.45;;;;;;;;;;5050105;28;20510;-66
2021/08/07 02:04:17;;;;;;;4.07;2.22;;;;;;;;;;5064883;28;20052;-66
2021/08/07 02:07:09;;;;;;;4.18;2.20;;;;;;;;;;5063892;28;20056;-66
2021/08/07 02:09:55;;;;;;;4.43;2.30;;;;;;;;;;5049250;28;20041;-66
2021/08/07 02:12:40;;;;;;;3.90;2.38;;;;;;;;;;5036712;28;20049;-65
2021/08/07 02:15:32;;;;;;;4.03;2.45;;;;;;;;;;5050504;28;20487;-65
2021/08/07 02:18:24;;;;;;;4.95;2.78;;;;;;;;;;5036786;28;20198;-65
2021/08/07 02:21:11;;;;;;;5.60;2.75;;;;;;;;;;5049473;28;20045;-65
2021/08/07 02:23:59;;;;;;;4.68;2.58;;;;;;;;;;5050527;28;20537;-65
2021/08/07 02:26:46;;;;;;;7.07;2.80;;;;;;;;;;5036756;28;20087;-65
2021/08/07 02:29:31;;;;;;;5.10;2.45;;;;;;;;;;5050744;28;20731;-65
2021/08/07 02:32:28;;;;;;;6.03;2.65;;;;;;;;;;5067134;28;20072;-66
2021/08/07 02:35:18;;;;;;;5.57;2.58;;;;;;;;;;5067802;28;20510;-66
2021/08/07 02:38:05;;;;;;;5.30;2.55;;;;;;;;;;5068339;28;20049;-65
2021/08/07 02:40:51;;;;;;;5.93;2.35;;;;;;;;;;5066857;28;20147;-66
2021/08/07 02:43:37;;;;;;;4.88;2.42;;;;;;;;;;5053955;28;20438;-65
2021/08/07 02:46:22;;;;;;;5.53;2.67;;;;;;;;;;5067208;28;20073;-65
2021/08/07 02:49:12;;;;;;;4.00;2.33;;;;;;;;;;5067480;28;20067;-66
2021/08/07 02:52:08;;;;;;;7.32;2.88;;;;;;;;;;5053134;28;20139;-65
2021/08/07 02:54:54;;;;;;;6.95;2.90;;;;;;;;;;5007304;28;20046;-63
2021/08/07 02:57:39;;;;;;;5.07;2.40;;;;;;;;;;5009162;28;20515;-63
2021/08/07 03:00:28;;;;;;;6.45;2.42;;;;;;;;;;4999920;28;20073;-63
2021/08/07 03:03:13;;;;;;;7.53;2.58;;;;;;;;;;5014402;28;20092;-63
2021/08/07 03:06:00;;;;;;;8.20;3.20;;;;;;;;;;5014416;28;20061;-63
2021/08/07 03:08:46;;;;;;;6.13;2.75;;;;;;;;;;5014608;28;20437;-63
2021/08/07 03:11:34;;;;;;;6.63;2.97;;;;;;;;;;5012478;28;20045;-63
2021/08/07 03:14:23;;;;;;;12.05;3.08;;;;;;;;;;5013927;28;20054;-63
2021/08/07 03:17:09;;;;;;;7.88;2.80;;;;;;;;;;5014203;28;20534;-63
2021/08/07 03:19:59;;;;;;;7.70;2.97;;;;;;;;;;5014276;28;20042;-63
2021/08/07 03:22:45;;;;;;;6.30;3.00;;;;;;;;;;5012202;28;20050;-63
2021/08/07 03:25:31;;;;;;;7.60;3.10;;;;;;;;;;5013752;28;20052;-63
2021/08/07 03:28:19;;;;;;;5.45;2.63;;;;;;;;;;5014144;28;20093;-63
2021/08/07 03:31:05;;;;;;;7.25;2.83;;;;;;;;;;5012337;28;20050;-63
2021/08/07 03:33:55;;;;;;;4.88;2.83;;;;;;;;;;5013705;28;20054;-63
2021/08/07 03:36:41;;;;;;;7.13;2.95;;;;;;;;;;5015020;28;20060;-63
2021/08/07 03:39:27;;;;;;;9.80;3.78;;;;;;;;;;5014130;28;20052;-63
2021/08/07 03:42:12;;;;;;;7.70;3.38;;;;;;;;;;5012834;28;20050;-63
2021/08/07 03:44:58;;;;;;;8.38;3.35;;;;;;;;;;5013581;28;20420;-64
2021/08/07 03:47:44;;;;;;;8.27;3.20;;;;;;;;;;5014832;28;20050;-64
2021/08/07 03:50:32;;;;;;;5.18;3.05;;;;;;;;;;5014053;28;20121;-63
2021/08/07 03:53:18;;;;;;;6.47;3.35;;;;;;;;;;5012492;28;20046;-63
2021/08/07 03:56:07;;;;;;;6.70;3.53;;;;;;;;;;5013595;28;20496;-63
2021/08/07 03:58:55;;;;;;;7.82;3.33;;;;;;;;;;5013434;28;20034;-63
2021/08/07 04:01:43;;;;;;;7.85;3.88;;;;;;;;;;5014587;28;20046;-63
2021/08/07 04:04:33;;;;;;;10.40;3.78;;;;;;;;;;5013281;28;20123;-63
2021/08/07 04:07:19;;;;;;;9.13;3.75;;;;;;;;;;5005777;28;20069;-63
2021/08/07 04:10:08;;;;;;;10.95;4.25;;;;;;;;;;4993841;28;20053;-63
2021/08/07 04:12:53;;;;;;;8.32;3.65;;;;;;;;;;4993843;28;20042;-63
2021/08/07 04:15:39;;;;;;;10.00;4.60;;;;;;;;;;4994509;28;20128;-63
2021/08/07 04:18:26;;;;;;;11.55;4.47;;;;;;;;;;4993505;28;20125;-63
2021/08/07 04:21:12;;;;;;;10.77;4.55;;;;;;;;;;4992607;28;20530;-63
2021/08/07 04:23:58;;;;;;;9.60;3.97;;;;;;;;;;4987522;28;20054;-63
2021/08/07 04:26:44;;;;;;;8.90;4.35;;;;;;;;;;4973975;28;20061;-63
2021/08/07 04:29:32;;;;;;;8.57;3.97;;;;;;;;;;4973794;28;20405;-63
2021/08/07 04:32:18;;;;;;;11.77;4.65;;;;;;;;;;4973923;28;20086;-63
2021/08/07 04:35:04;;;;;;;12.20;4.35;;;;;;;;;;4973445;28;20057;-63
2021/08/07 04:37:51;;;;;;;8.80;4.25;;;;;;;;;;5003759;28;20052;-63
2021/08/07 04:40:41;;;;;;;7.95;4.07;;;;;;;;;;5012786;28;20054;-63
2021/08/07 04:43:38;;;;;;;13.95;4.97;;;;;;;;;;5012322;28;20093;-63
2021/08/07 04:46:23;;;;;;;11.07;4.55;;;;;;;;;;5012491;28;20042;-63
2021/08/07 04:49:10;;;;;;;13.40;4.00;;;;;;;;;;5012610;28;20231;-63
2021/08/07 04:51:56;;;;;;;9.65;3.95;;;;;;;;;;5010316;28;20049;-63
2021/08/07 04:54:42;;;;;;;9.88;5.40;;;;;;;;;;5012335;28;20476;-63
2021/08/07 04:57:27;;;;;;;6.90;3.95;;;;;;;;;;5012529;28;20050;-63
2021/08/07 05:00:13;;;;;;;12.57;4.22;;;;;;;;;;5012276;28;20042;-63
2021/08/07 05:02:58;;;;;;;12.38;4.65;;;;;;;;;;4996523;28;20062;-63
2021/08/07 05:05:44;;;;;;;11.40;3.95;;;;;;;;;;4989774;28;20050;-63
2021/08/07 05:08:32;;;;;;;11.18;4.75;;;;;;;;;;4990300;28;20058;-63
2021/08/07 05:11:17;;;;;;;8.68;3.85;;;;;;;;;;4990544;28;20515;-63
2021/08/07 05:14:03;;;;;;;8.63;4.25;;;;;;;;;;4990481;28;20053;-63
2021/08/07 05:16:48;;;;;;;11.73;4.97;;;;;;;;;;4997958;28;20046;-63
2021/08/07 05:19:35;;;;;;;9.32;3.95;;;;;;;;;;5011902;28;20048;-63
2021/08/07 05:22:20;;;;;;;13.75;5.18;;;;;;;;;;4992961;28;20173;-63
2021/08/07 05:25:10;;;;;;;10.07;4.32;;;;;;;;;;4991770;28;20053;-63
2021/08/07 05:27:57;;;;;;;12.48;4.25;;;;;;;;;;5006595;28;20586;-63
2021/08/07 05:30:42;;;;;;;9.52;4.28;;;;;;;;;;4991674;28;20048;-63
2021/08/07 05:33:28;;;;;;;11.18;4.30;;;;;;;;;;4991301;28;20046;-63
2021/08/07 05:36:13;;;;;;;15.40;4.70;;;;;;;;;;4990785;28;20050;-63
2021/08/07 05:38:59;;;;;;;7.40;4.00;;;;;;;;;;4991482;28;20053;-63
2021/08/07 05:41:44;;;;;;;9.55;4.45;;;;;;;;;;4992071;28;20407;-63
2021/08/07 05:44:29;;;;;;;8.73;3.70;;;;;;;;;;4991824;28;20049;-63
2021/08/07 05:47:15;;;;;;;10.85;4.10;;;;;;;;;;4992749;28;20038;-63
2021/08/07 05:50:01;;;;;;;10.45;4.85;;;;;;;;;;5010235;28;20103;-63
2021/08/07 05:52:46;;;;;;;12.65;5.13;;;;;;;;;;5011484;28;20042;-63
2021/08/07 05:55:33;;;;;;;8.65;5.10;;;;;;;;;;5011793;28;20144;-63
2021/08/07 05:58:18;;;;;;;10.70;4.30;;;;;;;;;;5010236;28;20050;-63
2021/08/07 06:01:06;;;;;;;11.55;4.63;;;;;;;;;;5006608;28;20503;-63
2021/08/07 06:03:52;;;;;;;12.57;5.22;;;;;;;;;;5010972;28;20048;-63
2021/08/07 06:06:37;;;;;;;11.63;4.05;;;;;;;;;;5003374;28;20105;-63
2021/08/07 06:09:22;;;;;;;10.73;5.10;;;;;;;;;;5005182;28;20073;-63
2021/08/07 06:12:08;;;;;;;8.52;4.13;;;;;;;;;;5012897;28;20152;-63
2021/08/07 06:14:53;;;;;;;7.35;3.80;;;;;;;;;;5011609;28;20064;-63
2021/08/07 06:17:39;;;;;;;8.48;4.25;;;;;;;;;;5011706;28;20061;-63
2021/08/07 06:20:26;;;;;;;9.68;4.47;;;;;;;;;;5007961;28;20052;-63
2021/08/07 06:23:13;;;;;;;8.35;4.35;;;;;;;;;;5005176;28;20416;-64
2021/08/07 06:25:59;;;;;;;10.45;5.00;;;;;;;;;;5000306;28;20057;-64
2021/08/07 06:28:46;;;;;;;12.38;4.30;;;;;;;;;;4998835;28;20670;-63
2021/08/07 06:31:33;;;;;;;11.65;3.83;;;;;;;;;;5012884;28;20042;-64
2021/08/07 06:34:20;;;;;;;10.32;4.97;;;;;;;;;;5001737;28;20101;-63
2021/08/07 06:37:05;;;;;;;9.82;4.07;;;;;;;;;;5002436;28;20050;-64
2021/08/07 06:39:51;;;;;;;10.57;4.50;;;;;;;;;;5005450;28;20061;-63
2021/08/07 06:42:37;;;;;;;8.57;3.80;;;;;;;;;;5018918;28;20412;-63
2021/08/07 06:45:26;;;;;;;9.80;3.88;;;;;;;;;;5014680;28;20120;-64
2021/08/07 06:48:11;;;;;;;10.40;4.10;;;;;;;;;;5019775;28;20049;-63
2021/08/07 06:50:57;;;;;;;10.18;3.80;;;;;;;;;;5013207;28;20076;-63
2021/08/07 06:53:46;;;;;;;10.73;3.72;;;;;;;;;;5021394;28;20049;-64
2021/08/07 06:56:32;;;;;;;9.82;3.58;;;;;;;;;;5022242;28;20050;-64
2021/08/07 06:59:19;;;;;;;6.25;3.30;;;;;;;;;;4985430;28;20049;-63
2021/08/07 07:02:04;;;;;;;9.18;3.63;;;;;;;;;;4997388;28;20097;-62
2021/08/07 07:04:50;;;;;;;11.27;3.88;;;;;;;;;;5011479;28;20085;-64
2021/08/07 07:07:38;;;;;;;10.30;3.28;;;;;;;;;;5002116;28;20042;-62
2021/08/07 07:10:24;;;;;;;9.93;3.50;;;;;;;;;;4971892;28;20535;-63
2021/08/07 07:13:09;;;;;;;8.02;3.25;;;;;;;;;;4993975;28;20046;-63
2021/08/07 07:15:56;;;;;;;8.07;3.15;;;;;;;;;;5002649;28;20085;-63
2021/08/07 07:18:43;;;;;;;9.32;3.38;;;;;;;;;;4992651;28;20128;-63
2021/08/07 07:21:28;;;;;;;9.32;3.75;;;;;;;;;;4995426;28;20057;-62
2021/08/07 07:24:14;;;;;;;9.82;2.72;;;;;;;;;;5011720;28;20045;-63
2021/08/07 07:27:01;;;;;;;6.20;2.90;;;;;;;;;;5012141;28;20053;-62
2021/08/07 07:29:46;;;;;;;5.35;2.10;;;;;;;;;;5012059;28;20053;-62
2021/08/07 07:32:32;;;;;;;7.40;2.55;;;;;;;;;;5009314;28;20050;-63
2021/08/07 07:35:18;;;;;;;14.23;2.80;;;;;;;;;;5003359;28;20440;-63
2021/08/07 07:38:03;;;;;;;8.98;2.38;;;;;;;;;;5002612;28;20098;-63
2021/08/07 07:40:49;;;;;;;5.78;1.88;;;;;;;;;;5004325;28;20051;-63
2021/08/07 07:43:35;;;;;;;6.70;2.10;;;;;;;;;;5017026;28;20047;-63
2021/08/07 07:46:21;;;;;;;7.22;2.08;;;;;;;;;;5005339;28;20050;-63
2021/08/07 07:49:06;;;;;;;7.03;1.75;;;;;;;;;;5005110;28;20050;-63
2021/08/07 07:51:52;;;;;;;7.28;2.45;;;;;;;;;;5001703;28;20120;-63
2021/08/07 07:54:38;;;;;;;3.47;1.90;;;;;;;;;;5022932;28;20064;-63
2021/08/07 07:57:24;;;;;;;5.75;2.38;;;;;;;;;;5024194;28;20488;-63
2021/08/07 08:00:10;;;;;;;8.68;2.47;;;;;;;;;;4995821;28;20081;-62
2021/08/07 08:03:14;;;;;;;5.43;2.47;;;;;;;;;;5007770;28;20499;-63
2021/08/07 08:06:02;;;;;;;8.63;3.60;;;;;;;;;;5012332;28;20050;-62
2021/08/07 08:08:47;;;;;;;5.00;2.20;;;;;;;;;;5010702;28;20044;-63
2021/08/07 08:11:32;;;;;;;5.07;1.92;;;;;;;;;;5011391;28;20064;-62
2021/08/07 08:14:18;;;;;;;7.43;2.60;;;;;;;;;;4999033;28;20531;-62
2021/08/07 08:17:03;;;;;;;4.20;1.65;;;;;;;;;;4995555;28;20046;-62
2021/08/07 08:19:51;;;;;;;6.82;2.55;;;;;;;;;;5011142;28;20082;-63
2021/08/07 08:22:36;;;;;;;5.75;1.67;;;;;;;;;;5009829;28;20500;-63
2021/08/07 08:25:24;;;;;;;5.75;1.70;;;;;;;;;;5009271;28;20077;-63
2021/08/07 08:28:10;;;;;;;4.88;1.20;;;;;;;;;;5011159;28;20045;-62
2021/08/07 08:30:56;;;;;;;4.47;1.92;;;;;;;;;;5010754;28;20053;-63
2021/08/07 08:33:42;;;;;;;6.60;1.75;;;;;;;;;;5007744;28;20552;-63
2021/08/07 08:36:27;;;;;;;4.20;1.40;;;;;;;;;;5009266;28;20168;-63
2021/08/07 08:39:14;;;;;;;4.65;1.95;;;;;;;;;;5010718;28;20092;-63
2021/08/07 08:41:59;;;;;;;5.75;1.50;;;;;;;;;;5013567;28;20108;-64
2021/08/07 08:44:46;;;;;;;5.93;1.35;;;;;;;;;;4992528;28;20563;-63
2021/08/07 08:47:32;;;;;;;5.88;1.30;;;;;;;;;;4996266;28;20130;-62
2021/08/07 08:50:22;;;;;;;6.20;1.50;;;;;;;;;;4997730;28;20052;-64
2021/08/07 08:53:07;;;;;;;5.18;1.30;;;;;;;;;;4990888;28;20058;-63
2021/08/07 08:55:53;;;;;;;6.10;1.27;;;;;;;;;;5024252;22;20071;-65
2021/08/07 08:58:39;;;;;;;3.40;1.15;;;;;;;;;;5027262;28;20446;-65
2021/08/07 09:01:24;;;;;;;4.95;1.00;;;;;;;;;;5030492;28;20047;-65
2021/08/07 09:04:09;;;;;;;3.08;0.65;;;;;;;;;;5027757;28;20064;-66
2021/08/07 09:06:54;;;;;;;2.88;0.82;;;;;;;;;;5020686;28;20053;-65
2021/08/07 09:09:43;;;;;;;2.80;1.10;;;;;;;;;;5031033;28;20415;-65
2021/08/07 09:12:43;;;;;;;3.03;0.93;;;;;;;;;;5031012;28;20121;-65
2021/08/07 09:15:39;;;;;;;6.35;1.13;;;;;;;;;;5021563;28;20052;-65
2021/08/07 09:18:44;;;;;;;3.13;1.10;;;;;;;;;;5051657;28;20067;-65
2021/08/07 09:21:30;;;;;;;2.75;0.77;;;;;;;;;;5051558;28;20140;-65
2021/08/07 09:24:16;;;;;;;2.25;0.80;;;;;;;;;;5051398;28;20104;-65
2021/08/07 09:27:05;;;;;;;1.80;0.60;;;;;;;;;;5035657;28;20128;-66
2021/08/07 09:29:51;;;;;;;4.38;0.90;;;;;;;;;;5031011;28;20045;-65
2021/08/07 09:33:03;;;;;;;2.95;0.60;;;;;;;;;;5017791;28;20052;-65
2021/08/07 09:35:53;;;;;;;2.05;0.60;;;;;;;;;;5029034;28;20088;-65
2021/08/07 09:38:45;;;;;;;3.20;0.50;;;;;;;;;;5050757;28;20044;-66
2021/08/07 09:41:31;;;;;;;4.53;1.05;;;;;;;;;;5051280;28;20049;-65
2021/08/07 09:44:20;;;;;;;2.58;0.50;;;;;;;;;;5047972;28;20053;-66
2021/08/07 09:47:08;;;;;;;3.42;0.70;;;;;;;;;;5029833;28;20139;-65
2021/08/07 09:49:53;;;;;;;3.53;0.88;;;;;;;;;;5031245;28;20546;-65
2021/08/07 09:52:39;;;;;;;2.80;0.50;;;;;;;;;;5031102;28;20037;-65
2021/08/07 09:55:26;;;;;;;2.40;0.65;;;;;;;;;;5039107;28;20140;-66
2021/08/07 09:58:12;;;;;;;3.33;0.93;;;;;;;;;;5051068;28;20399;-66
2021/08/07 10:01:00;;;;;;;3.47;0.70;;;;;;;;;;5037232;28;20056;-65
2021/08/07 10:03:45;;;;;;;4.22;0.52;;;;;;;;;;5050888;28;20104;-65
2021/08/07 10:06:30;;;;;;;3.72;0.70;;;;;;;;;;5050230;28;20045;-66
2021/08/07 10:09:33;;;;;;;2.78;0.82;;;;;;;;;;5050249;28;20059;-66
2021/08/07 10:12:20;;;;;;;1.90;0.50;;;;;;;;;;5051014;28;20068;-66
2021/08/07 10:15:24;;;;;;;0.93;0.57;;;;;;;;;;5050135;28;20086;-65
2021/08/07 10:18:09;;;;;;;5.10;0.77;;;;;;;;;;5049255;28;20415;-66
2021/08/07 10:20:55;;;;;;;5.18;0.90;;;;;;;;;;5050866;28;20054;-66
2021/08/07 10:23:40;;;;;;;2.80;0.80;;;;;;;;;;5036620;28;20163;-65
2021/08/07 10:26:26;;;;;;;3.30;0.52;;;;;;;;;;5035943;28;20048;-65
2021/08/07 10:29:12;;;;;;;2.08;0.73;;;;;;;;;;5036605;28;20487;-66
2021/08/07 10:31:58;;;;;;;3.58;0.88;;;;;;;;;;5050679;28;20037;-66
2021/08/07 10:34:53;;;;;;;4.05;1.02;;;;;;;;;;5051470;28;20114;-66
2021/08/07 10:37:40;;;;;;;2.03;0.50;;;;;;;;;;5035473;28;20055;-66
2021/08/07 10:40:27;;;;;;;3.85;1.10;;;;;;;;;;5050154;28;20051;-66
2021/08/07 10:43:12;;;;;;;3.20;0.80;;;;;;;;;;5050623;28;20041;-66
2021/08/07 10:45:58;;;;;;;2.03;0.52;;;;;;;;;;5050523;28;20094;-66
2021/08/07 10:48:44;;;;;;;4.00;0.80;;;;;;;;;;5049684;28;20044;-66
2021/08/07 10:51:34;;;;;;;1.48;0.98;;;;;;;;;;5036680;28;20061;-67
2021/08/07 10:54:29;;;;;;;5.07;0.60;;;;;;;;;;5055177;28;20041;-66
2021/08/07 10:57:34;;;;;;;2.15;0.82;;;;;;;;;;5053998;28;20047;-66
2021/08/07 11:00:20;;;;;;;2.85;0.60;;;;;;;;;;5053016;28;20051;-66
2021/08/07 11:03:12;;;;;;;3.70;0.80;;;;;;;;;;5055283;28;20060;-66
2021/08/07 11:05:57;;;;;;;;;;;;;;;;;;5054473;28;20048;-66
2021/08/07 11:08:43;;;;;;;3.28;0.60;;;;;;;;;;5053119;28;19928;-66
2021/08/07 11:11:28;;;;;;;3.00;0.70;;;;;;;;;;5054171;28;20179;-66
2021/08/07 11:14:26;;;;;;;3.58;0.90;;;;;;;;;;5054287;28;20052;-66
2021/08/07 11:17:11;;;;;;;4.18;0.90;;;;;;;;;;5054715;28;20048;-67
2021/08/07 11:20:00;;;;;;;2.28;0.50;;;;;;;;;;5054147;28;20122;-66
2021/08/07 11:22:46;;;;;;;4.13;0.70;;;;;;;;;;5054946;28;20064;-67
2021/08/07 11:25:32;;;;;;;2.88;0.82;;;;;;;;;;5054485;28;20098;-66
2021/08/07 11:28:19;;;;;;;1.98;0.60;;;;;;;;;;5052899;28;20186;-70
2021/08/07 11:31:16;;;;;;;3.08;0.73;;;;;;;;;;5056867;28;20052;-78
2021/08/07 11:34:21;;;;;;;4.50;1.05;;;;;;;;;;5050055;28;20044;-65
2021/08/07 11:37:11;;;;;;;2.63;0.70;;;;;;;;;;5036128;28;20069;-65
2021/08/07 11:40:09;;;;;;;3.58;0.63;;;;;;;;;;5041383;28;20523;-66
2021/08/07 11:42:55;;;;;;;3.13;0.90;;;;;;;;;;5041931;28;20769;-65
2021/08/07 11:45:40;;;;;;;2.58;1.10;;;;;;;;;;5044386;28;20534;-68
2021/08/07 11:48:36;;;;;;;2.42;0.52;;;;;;;;;;5044310;28;20037;-68
2021/08/07 11:51:28;;;;;;;2.20;0.50;;;;;;;;;;5036875;28;20475;-66
2021/08/07 11:54:13;;;;;;;;;;;;;;;;;;5037908;28;20107;-66
2021/08/07 11:56:58;;;;;;;3.22;0.90;;;;;;;;;;5037745;28;19921;-66
2021/08/07 11:59:44;;;;;;;2.33;0.70;;;;;;;;;;5037856;28;20190;-68
2021/08/07 12:02:29;;;;;;;1.73;0.60;;;;;;;;;;5037870;28;20048;-66
2021/08/07 12:05:14;;;;;;;2.15;0.63;;;;;;;;;;5037637;28;20430;-66
2021/08/07 12:08:01;;;;;;;2.45;0.70;;;;;;;;;;5037776;28;20110;-65
2021/08/07 12:10:57;;;;;;;4.88;1.23;;;;;;;;;;5043633;28;20440;-67
2021/08/07 12:14:00;;;;;;;1.23;0.60;;;;;;;;;;5030461;28;20152;-65
2021/08/07 12:16:45;;;;;;;3.33;0.70;;;;;;;;;;5030299;28;20052;-65
2021/08/07 12:19:30;;;;;;;2.25;1.10;;;;;;;;;;5031059;28;20076;-66
2021/08/07 12:22:16;;;;;;;2.25;0.68;;;;;;;;;;5049043;28;20110;-66
2021/08/07 12:25:04;;;;;;;2.00;0.70;;;;;;;;;;5039474;28;20055;-65
2021/08/07 12:28:05;;;;;;;1.85;0.80;;;;;;;;;;5029948;28;20053;-66
2021/08/07 12:30:51;;;;;;;2.42;0.80;;;;;;;;;;5034833;28;20115;-66
2021/08/07 12:33:38;;;;;;;4.40;1.00;;;;;;;;;;5051135;28;20403;-66
2021/08/07 12:36:24;;;;;;;4.07;0.80;;;;;;;;;;5050869;28;20057;-66
2021/08/07 12:39:09;;;;;;;3.47;0.75;;;;;;;;;;5050257;28;20433;-66
2021/08/07 12:41:54;;;;;;;1.50;0.55;;;;;;;;;;5049220;28;20060;-66
2021/08/07 12:44:39;;;;;;;3.67;1.23;;;;;;;;;;5049445;28;20117;-66
2021/08/07 12:47:26;;;;;;;3.65;0.70;;;;;;;;;;5050795;28;20045;-66
2021/08/07 12:50:11;;;;;;;2.10;0.47;;;;;;;;;;5050385;28;20052;-65
2021/08/07 12:52:57;;;;;;;2.05;0.55;;;;;;;;;;5049127;28;20043;-65
2021/08/07 12:55:50;;;;;;;3.38;0.75;;;;;;;;;;5046240;28;20052;-66
2021/08/07 12:58:37;;;;;;;1.77;0.68;;;;;;;;;;5050478;28;20048;-65
2021/08/07 13:01:23;;;;;;;3.10;0.60;;;;;;;;;;5050316;28;20502;-66
2021/08/07 13:04:09;;;;;;;1.73;0.70;;;;;;;;;;5029144;28;20076;-66
2021/08/07 13:07:01;;;;;;;1.63;0.60;;;;;;;;;;5029703;28;20064;-65
2021/08/07 13:09:46;;;;;;;;;;;;;;;;;;5030409;28;20049;-66
2021/08/07 13:12:35;;;;;;;1.73;0.77;;;;;;;;;;5045327;28;19920;-66
2021/08/07 13:15:21;;;;;;;2.65;0.60;;;;;;;;;;5049117;28;20056;-65
2021/08/07 13:18:06;;;;;;;2.17;0.70;;;;;;;;;;5049619;28;20087;-66
2021/08/07 13:20:52;;;;;;;5.20;1.33;;;;;;;;;;5048429;28;20503;-65
2021/08/07 13:23:38;;;;;;;4.07;0.68;;;;;;;;;;5049460;28;20047;-64
2021/08/07 13:26:23;;;;;;;2.60;0.60;;;;;;;;;;5050166;28;20059;-64
2021/08/07 13:29:18;;;;;;;4.95;0.70;;;;;;;;;;5048537;28;20052;-65
2021/08/07 13:32:22;;;;;;;3.35;0.68;;;;;;;;;;5049382;28;20519;-64
2021/08/07 13:35:14;;;;;;;2.10;0.77;;;;;;;;;;5048957;28;20045;-65
2021/08/07 13:38:00;;;;;;;1.77;0.47;;;;;;;;;;5049638;28;20041;-64
2021/08/07 13:40:45;;;;;;;4.45;1.00;;;;;;;;;;5047546;28;20052;-65
2021/08/07 13:43:30;;;;;;;5.82;0.80;;;;;;;;;;5033808;28;20162;-64
2021/08/07 13:46:15;;;;;;;2.53;1.20;;;;;;;;;;5034787;28;20204;-65
2021/08/07 13:49:01;;;;;;;4.05;1.13;;;;;;;;;;5028638;28;20506;-66
2021/08/07 13:51:47;;;;;;;2.83;1.20;;;;;;;;;;5047792;28;20080;-68
2021/08/07 13:54:32;;;;;;;3.90;1.17;;;;;;;;;;5048317;28;20051;-65
2021/08/07 13:57:17;;;;;;;2.63;1.00;;;;;;;;;;5044313;28;20634;-66
2021/08/07 14:00:02;;;;;;;2.75;1.15;;;;;;;;;;5047108;28;20073;-65
2021/08/07 14:02:57;;;;;;;1.95;0.80;;;;;;;;;;5028735;28;20064;-67
2021/08/07 14:05:42;;;;;;;1.80;0.90;;;;;;;;;;5029597;28;20056;-66
2021/08/07 14:08:28;;;;;;;1.80;0.88;;;;;;;;;;5029529;28;20434;-66
2021/08/07 14:11:13;;;;;;;2.35;1.15;;;;;;;;;;5030719;28;20053;-65
2021/08/07 14:13:58;;;;;;;3.75;1.38;;;;;;;;;;5028311;28;20057;-65
2021/08/07 14:16:44;;;;;;;2.30;1.27;;;;;;;;;;5028972;28;20048;-65
2021/08/07 14:19:29;;;;;;;2.03;0.80;;;;;;;;;;5029602;28;20041;-65
2021/08/07 14:22:14;;;;;;;2.30;0.80;;;;;;;;;;5041306;28;20060;-65
2021/08/07 14:25:00;;;;;;;1.63;0.40;;;;;;;;;;5049231;28;20048;-65
2021/08/07 14:27:45;;;;;;;1.25;0.50;;;;;;;;;;5051377;28;20102;-65
2021/08/07 14:30:30;;;;;;;1.20;0.47;;;;;;;;;;5053842;28;20048;-65
2021/08/07 14:33:16;;;;;;;1.17;0.65;;;;;;;;;;5052186;28;20119;-65
2021/08/07 14:36:01;;;;;;;0.80;0.40;;;;;;;;;;5052635;28;20163;-65
2021/08/07 14:38:47;;;;;;;1.55;0.63;;;;;;;;;;5052543;28;20057;-65
2021/08/07 14:41:32;;;;;;;2.10;0.85;;;;;;;;;;5045176;28;20054;-65
2021/08/07 14:44:18;;;;;;;2.40;0.82;;;;;;;;;;5033035;28;20049;-65
2021/08/07 14:47:03;;;;;;;3.70;0.90;;;;;;;;;;5049837;28;20510;-66
2021/08/07 14:49:50;;;;;;;3.80;0.75;;;;;;;;;;5052014;28;20116;-66
2021/08/07 14:52:35;;;;;;;4.30;0.90;;;;;;;;;;5052038;28;20604;-67
2021/08/07 14:55:21;;;;;;;1.42;0.82;;;;;;;;;;5052034;28;20490;-66
2021/08/07 14:58:06;;;;;;;2.22;0.68;;;;;;;;;;5047416;28;20511;-66
2021/08/07 15:00:51;;;;;;;3.72;1.33;;;;;;;;;;5051288;28;20057;-65
2021/08/07 15:03:36;;;;;;;2.63;0.80;;;;;;;;;;5052370;28;20053;-66
2021/08/07 15:06:22;;;;;;;4.30;0.98;;;;;;;;;;5053298;28;20447;-66
2021/08/07 15:09:07;;;;;;;1.52;0.47;;;;;;;;;;5051836;28;20059;-66
2021/08/07 15:11:52;;;;;;;3.38;0.80;;;;;;;;;;5039895;28;20047;-66
2021/08/07 15:14:38;;;;;;;2.13;0.75;;;;;;;;;;5032971;28;20517;-66
2021/08/07 15:17:23;;;;;;;16.90;5.53;;;;;;;;;;5031909;28;20051;-65
2021/08/07 15:20:08;;;;;;;2.97;0.88;;;;;;;;;;5032442;28;20052;-67
2021/08/07 15:22:54;;;;;;;2.80;0.80;;;;;;;;;;5050684;28;20056;-66
2021/08/07 15:25:39;;;;;;;4.30;1.00;;;;;;;;;;5052563;28;20045;-66
2021/08/07 15:28:24;;;;;;;3.72;1.10;;;;;;;;;;5051953;28;20154;-67
2021/08/07 15:31:09;;;;;;;2.83;0.98;;;;;;;;;;5051671;28;20152;-66
2021/08/07 15:33:55;;;;;;;1.83;0.65;;;;;;;;;;5049384;28;20095;-66
2021/08/07 15:36:40;;;;;;;3.63;1.20;;;;;;;;;;5051729;28;20163;-67
2021/08/07 15:39:25;;;;;;;2.45;0.70;;;;;;;;;;5052449;28;20588;-66
2021/08/07 15:42:11;;;;;;;2.00;1.00;;;;;;;;;;5045374;28;20123;-66
2021/08/07 15:44:56;;;;;;;6.88;1.63;;;;;;;;;;5051149;28;20192;-66
2021/08/07 15:47:43;;;;;;;3.78;1.08;;;;;;;;;;5051673;28;20045;-66
2021/08/07 15:50:28;;;;;;;3.17;0.93;;;;;;;;;;5051738;28;20465;-65
2021/08/07 15:53:14;;;;;;;4.43;1.20;;;;;;;;;;5050581;28;20710;-65
2021/08/07 15:56:00;;;;;;;4.07;0.93;;;;;;;;;;5047563;28;20695;-68
2021/08/07 15:58:45;;;;;;;2.88;0.90;;;;;;;;;;5048249;28;20061;-65
2021/08/07 16:01:30;;;;;;;3.05;0.90;;;;;;;;;;5045647;28;20041;-66
2021/08/07 16:04:16;;;;;;;4.07;1.17;;;;;;;;;;5051323;28;20048;-65
2021/08/07 16:07:01;;;;;;;5.70;1.30;;;;;;;;;;5051079;28;20044;-65
2021/08/07 16:09:46;;;;;;;3.17;0.80;;;;;;;;;;5050670;28;20052;-67
2021/08/07 16:12:31;;;;;;;6.45;1.40;;;;;;;;;;5034373;28;20048;-66
2021/08/07 16:15:17;;;;;;;4.30;0.98;;;;;;;;;;5031421;28;20152;-65
2021/08/07 16:18:02;;;;;;;5.35;1.13;;;;;;;;;;5030467;28;20052;-65
2021/08/07 16:20:47;;;;;;;4.55;0.80;;;;;;;;;;5031818;28;20061;-65
2021/08/07 16:23:32;;;;;;;4.38;0.90;;;;;;;;;;5051120;28;20243;-67
2021/08/07 16:26:18;;;;;;;3.40;1.23;;;;;;;;;;5051054;28;20044;-65
2021/08/07 16:29:03;;;;;;;2.70;0.93;;;;;;;;;;5049261;28;20515;-65
2021/08/07 16:31:51;;;;;;;3.47;0.75;;;;;;;;;;5050113;28;20091;-65
2021/08/07 16:34:37;;;;;;;4.90;0.80;;;;;;;;;;5051328;28;20064;-65
2021/08/07 16:37:22;;;;;;;2.85;0.68;;;;;;;;;;5051315;28;20412;-65
2021/08/07 16:40:08;;;;;;;2.65;0.93;;;;;;;;;;5049871;28;20045;-66
2021/08/07 16:42:53;;;;;;;4.03;0.98;;;;;;;;;;5049877;28;20044;-65